Time;durP1;ratioP1;P1;durP2;ratioP2;P2;SDS_P1;SDS_P2;PMS_P1;PMS_P2;Temp;Humidity;BMP_temperature;BMP_pressure;BME280_temperature;BME280_humidity;BME280_pressure;Samples;Min_cycle;Max_cycle;Signal;HPM_P1;HPM_P2
2021/07/01 00:01:05;;;;;;;0.93;0.85;;;13.80;99.90;;;;;;4955046;28;20216;-42
2021/07/01 00:03:33;;;;;;;0.93;0.80;;;13.80;99.90;;;;;;4955158;28;20609;-42
2021/07/01 00:06:04;;;;;;;0.88;0.80;;;13.80;99.90;;;;;;4955169;28;20251;-43
2021/07/01 00:08:33;;;;;;;0.77;0.77;;;13.80;99.90;;;;;;4954911;28;20231;-43
2021/07/01 00:11:01;;;;;;;0.80;0.80;;;13.70;99.90;;;;;;4955136;28;20222;-41
2021/07/01 00:13:29;;;;;;;0.70;0.70;;;13.70;99.90;;;;;;4955266;28;20233;-41
2021/07/01 00:15:58;;;;;;;1.30;0.95;;;13.60;99.90;;;;;;4954881;28;20215;-40
2021/07/01 00:18:26;;;;;;;1.75;0.80;;;13.60;99.90;;;;;;4954792;28;20215;-42
2021/07/01 00:20:54;;;;;;;1.52;1.10;;;13.60;99.90;;;;;;4954788;28;20302;-41
2021/07/01 00:23:22;;;;;;;0.65;0.65;;;13.60;99.90;;;;;;4954753;28;20695;-41
2021/07/01 00:25:51;;;;;;;0.88;0.88;;;13.50;99.90;;;;;;4954997;28;20357;-41
2021/07/01 00:28:19;;;;;;;1.13;0.60;;;13.50;99.90;;;;;;4954991;28;20217;-42
2021/07/01 00:30:47;;;;;;;1.10;1.00;;;13.50;99.90;;;;;;4954812;28;20274;-41
2021/07/01 00:33:15;;;;;;;2.95;0.90;;;13.60;99.90;;;;;;4954126;28;20231;-41
2021/07/01 00:35:43;;;;;;;1.38;0.82;;;13.50;99.90;;;;;;4954480;28;20314;-41
2021/07/01 00:38:11;;;;;;;2.53;0.98;;;13.50;99.90;;;;;;4954337;28;20207;-42
2021/07/01 00:40:39;;;;;;;1.20;1.10;;;13.50;99.90;;;;;;4954702;28;20236;-41
2021/07/01 00:43:08;;;;;;;1.13;0.98;;;13.50;99.90;;;;;;4954624;28;20749;-41
2021/07/01 00:45:36;;;;;;;2.25;1.08;;;13.40;99.90;;;;;;4954490;28;20301;-42
2021/07/01 00:48:05;;;;;;;1.10;0.93;;;13.40;99.90;;;;;;4954319;28;20307;-41
2021/07/01 00:50:33;;;;;;;1.52;1.17;;;13.40;99.90;;;;;;4954287;28;20326;-42
2021/07/01 00:53:00;;;;;;;2.45;0.90;;;13.40;99.90;;;;;;4954308;28;20302;-41
2021/07/01 00:55:29;;;;;;;1.23;1.13;;;13.40;99.90;;;;;;4954404;28;20639;-41
2021/07/01 00:57:57;;;;;;;2.88;1.10;;;13.40;99.90;;;;;;4954304;28;20247;-41
2021/07/01 01:00:39;;;;;;;1.42;1.33;;;13.30;99.90;;;;;;4954274;28;20294;-42
2021/07/01 01:03:07;;;;;;;1.00;0.90;;;13.30;99.90;;;;;;4954370;28;20200;-41
2021/07/01 01:05:35;;;;;;;1.40;1.30;;;13.30;99.90;;;;;;4954357;28;20262;-41
2021/07/01 01:08:04;;;;;;;1.25;1.15;;;13.30;99.90;;;;;;4954275;28;20294;-41
2021/07/01 01:10:32;;;;;;;1.15;1.05;;;13.30;99.90;;;;;;4953860;28;20235;-41
2021/07/01 01:13:00;;;;;;;2.42;1.50;;;13.30;99.90;;;;;;4954279;28;20211;-41
2021/07/01 01:15:29;;;;;;;0.90;0.90;;;13.20;99.90;;;;;;4953820;28;20221;-41
2021/07/01 01:17:57;;;;;;;1.73;1.45;;;13.20;99.90;;;;;;4954217;28;20215;-41
2021/07/01 01:20:25;;;;;;;2.95;1.60;;;13.20;99.90;;;;;;4953915;28;20301;-42
2021/07/01 01:22:54;;;;;;;1.30;1.20;;;13.20;99.90;;;;;;4953870;28;20222;-42
2021/07/01 01:25:22;;;;;;;1.60;1.50;;;13.20;99.90;;;;;;4954065;28;20233;-41
2021/07/01 01:27:50;;;;;;;1.33;1.23;;;13.20;99.90;;;;;;4953819;28;20211;-42
2021/07/01 01:30:19;;;;;;;1.58;1.48;;;13.20;99.90;;;;;;4953955;28;20235;-41
2021/07/01 01:32:47;;;;;;;1.80;1.30;;;13.20;99.90;;;;;;4953896;28;20290;-43
2021/07/01 01:35:15;;;;;;;1.63;1.52;;;13.20;99.90;;;;;;4953876;28;20215;-41
2021/07/01 01:37:43;;;;;;;1.98;1.27;;;13.20;99.90;;;;;;4953576;28;20750;-41
2021/07/01 01:40:13;;;;;;;2.33;1.40;;;13.20;99.90;;;;;;4954028;28;20760;-41
2021/07/01 01:42:41;;;;;;;2.03;1.40;;;13.20;99.90;;;;;;4953592;28;20298;-41
2021/07/01 01:45:10;;;;;;;1.92;1.20;;;13.20;99.90;;;;;;4956337;28;20298;-42
2021/07/01 01:47:38;;;;;;;1.70;1.60;;;13.20;99.90;;;;;;4957815;28;20219;-43
2021/07/01 01:50:07;;;;;;;0.93;0.93;;;13.20;99.90;;;;;;4957563;28;20245;-41
2021/07/01 01:52:53;;;;;;;1.67;1.42;;;13.20;99.90;;;;;;4957301;28;20250;-40
2021/07/01 01:55:23;;;;;;;1.70;1.30;;;13.10;99.90;;;;;;4957481;28;20306;-41
2021/07/01 01:57:52;;;;;;;2.03;1.60;;;13.10;99.90;;;;;;4957311;28;20311;-41
2021/07/01 02:00:21;;;;;;;1.75;1.65;;;13.10;99.90;;;;;;4957265;28;20299;-41
2021/07/01 02:02:50;;;;;;;2.40;1.70;;;13.10;99.90;;;;;;4957446;28;20309;-41
2021/07/01 02:05:19;;;;;;;2.92;1.90;;;13.10;99.90;;;;;;4956980;28;20243;-40
2021/07/01 02:07:47;;;;;;;3.30;1.30;;;13.00;99.90;;;;;;4957155;28;20743;-40
2021/07/01 02:10:17;;;;;;;2.13;1.80;;;13.10;99.90;;;;;;4956976;28;20656;-41
2021/07/01 02:12:46;;;;;;;1.40;1.30;;;13.10;99.90;;;;;;4957163;28;20239;-41
2021/07/01 02:15:16;;;;;;;1.33;1.23;;;13.10;99.90;;;;;;4957142;28;20742;-41
2021/07/01 02:17:44;;;;;;;1.55;1.30;;;13.10;99.90;;;;;;4956947;28;20278;-43
2021/07/01 02:20:14;;;;;;;1.90;1.35;;;13.10;99.90;;;;;;4956928;28;20221;-41
2021/07/01 02:22:43;;;;;;;2.47;1.00;;;13.10;99.90;;;;;;4957134;28;20238;-41
2021/07/01 02:25:12;;;;;;;1.40;1.00;;;13.10;99.90;;;;;;4956970;28;20322;-41
2021/07/01 02:27:40;;;;;;;1.10;1.02;;;13.00;99.90;;;;;;4956646;28;20250;-42
2021/07/01 02:30:14;;;;;;;1.40;1.30;;;13.00;99.90;;;;;;4952972;28;20319;-41
2021/07/01 02:32:43;;;;;;;1.77;1.35;;;13.10;99.90;;;;;;4956696;28;20289;-41
2021/07/01 02:35:30;;;;;;;1.58;1.30;;;13.10;99.90;;;;;;4956834;28;20314;-41
2021/07/01 02:37:58;;;;;;;1.45;1.35;;;13.10;99.90;;;;;;4956580;28;20254;-42
2021/07/01 02:40:26;;;;;;;1.75;1.38;;;13.10;99.90;;;;;;4956336;28;20204;-41
2021/07/01 02:42:54;;;;;;;1.42;1.33;;;13.10;99.90;;;;;;4956570;28;20242;-43
2021/07/01 02:45:23;;;;;;;1.40;1.30;;;13.00;99.90;;;;;;4956472;28;20615;-43
2021/07/01 02:47:51;;;;;;;2.83;1.20;;;13.10;99.90;;;;;;4956717;28;20294;-42
2021/07/01 02:50:19;;;;;;;1.10;1.00;;;13.10;99.90;;;;;;4956527;28;20535;-41
2021/07/01 02:52:47;;;;;;;1.35;1.15;;;13.10;99.90;;;;;;4956604;28;20311;-41
2021/07/01 02:55:15;;;;;;;1.42;1.30;;;13.10;99.90;;;;;;4955817;28;20215;-41
2021/07/01 02:57:43;;;;;;;1.40;1.30;;;13.10;99.90;;;;;;4956143;28;20672;-41
2021/07/01 03:00:13;;;;;;;2.88;1.10;;;13.10;99.90;;;;;;4956758;28;20298;-41
2021/07/01 03:02:43;;;;;;;1.73;1.40;;;13.20;99.90;;;;;;4957206;28;20270;-42
2021/07/01 03:05:11;;;;;;;1.58;1.40;;;13.10;99.90;;;;;;4956433;28;20299;-42
2021/07/01 03:07:39;;;;;;;1.30;1.20;;;13.20;99.90;;;;;;4956156;28;20212;-40
2021/07/01 03:10:08;;;;;;;1.60;1.23;;;13.20;99.90;;;;;;4956217;28;20270;-40
2021/07/01 03:12:36;;;;;;;1.77;1.58;;;13.20;99.90;;;;;;4956319;28;20247;-40
2021/07/01 03:15:05;;;;;;;1.20;1.10;;;13.20;99.90;;;;;;4956042;28;20215;-39
2021/07/01 03:17:33;;;;;;;1.30;1.20;;;13.20;99.90;;;;;;4956240;28;20372;-39
2021/07/01 03:20:04;;;;;;;1.38;1.27;;;13.20;99.90;;;;;;4956005;28;20267;-40
2021/07/01 03:22:32;;;;;;;1.50;1.40;;;13.30;99.90;;;;;;4955697;28;20215;-41
2021/07/01 03:25:00;;;;;;;1.63;1.38;;;13.30;99.90;;;;;;4955830;28;20635;-40
2021/07/01 03:27:28;;;;;;;1.30;1.20;;;13.30;99.90;;;;;;4956062;28;20211;-41
2021/07/01 03:29:56;;;;;;;1.65;1.50;;;13.30;99.90;;;;;;4955589;28;20302;-41
2021/07/01 03:32:24;;;;;;;1.67;1.58;;;13.30;99.90;;;;;;4955802;28;20239;-42
2021/07/01 03:34:52;;;;;;;2.25;1.40;;;13.30;99.90;;;;;;4955849;28;20303;-41
2021/07/01 03:37:21;;;;;;;2.22;1.95;;;13.30;99.90;;;;;;4955642;28;20207;-45
2021/07/01 03:39:49;;;;;;;2.00;1.80;;;13.30;99.90;;;;;;4955560;28;20304;-42
2021/07/01 03:42:20;;;;;;;2.33;1.80;;;13.30;99.90;;;;;;4955354;28;20271;-41
2021/07/01 03:44:49;;;;;;;2.63;2.42;;;13.30;99.90;;;;;;4955354;28;20215;-41
2021/07/01 03:47:17;;;;;;;2.13;1.92;;;13.40;99.90;;;;;;4955360;28;20369;-42
2021/07/01 03:49:45;;;;;;;3.08;2.78;;;13.40;99.90;;;;;;4954918;28;20667;-43
2021/07/01 03:52:12;;;;;;;2.47;2.28;;;13.40;99.90;;;;;;4955208;28;20231;-42
2021/07/01 03:54:42;;;;;;;2.55;2.03;;;13.40;99.90;;;;;;4955466;28;20247;-44
2021/07/01 03:57:10;;;;;;;1.90;1.80;;;13.40;99.90;;;;;;4955246;28;20750;-41
2021/07/01 03:59:37;;;;;;;2.20;2.10;;;13.40;99.90;;;;;;4955216;28;20217;-42
2021/07/01 04:02:06;;;;;;;2.70;2.08;;;13.40;99.90;;;;;;4955174;28;20214;-42
2021/07/01 04:04:34;;;;;;;2.38;2.17;;;13.40;99.90;;;;;;4955021;28;20215;-41
2021/07/01 04:07:03;;;;;;;2.50;2.30;;;13.40;99.90;;;;;;4954483;28;20306;-42
2021/07/01 04:09:31;;;;;;;2.60;2.40;;;13.40;99.90;;;;;;4954459;28;20550;-43
2021/07/01 04:12:01;;;;;;;3.13;2.83;;;13.40;99.90;;;;;;4955005;28;20233;-40
2021/07/01 04:14:29;;;;;;;2.40;2.20;;;13.40;99.90;;;;;;4954662;28;20317;-40
2021/07/01 04:16:57;;;;;;;2.50;2.30;;;13.40;99.90;;;;;;4955227;28;20375;-41
2021/07/01 04:19:25;;;;;;;2.40;2.20;;;13.40;99.90;;;;;;4954792;28;20214;-40
2021/07/01 04:21:53;;;;;;;2.95;2.72;;;13.50;99.90;;;;;;4954731;28;20298;-40
2021/07/01 04:24:21;;;;;;;2.75;2.50;;;13.40;99.90;;;;;;4954247;28;20310;-40
2021/07/01 04:26:49;;;;;;;2.50;2.30;;;13.40;99.90;;;;;;4954680;28;20214;-41
2021/07/01 04:29:19;;;;;;;3.10;2.90;;;13.40;99.90;;;;;;4954890;28;20247;-40
2021/07/01 04:31:47;;;;;;;2.83;2.60;;;13.40;99.90;;;;;;4955168;28;20341;-41
2021/07/01 04:34:15;;;;;;;2.80;2.60;;;13.50;99.90;;;;;;4954920;28;20295;-40
2021/07/01 04:36:44;;;;;;;3.35;3.05;;;13.50;99.90;;;;;;4955578;28;20207;-40
2021/07/01 04:39:12;;;;;;;2.90;2.65;;;13.50;99.90;;;;;;4955222;28;20222;-41
2021/07/01 04:41:40;;;;;;;3.17;2.80;;;13.50;99.90;;;;;;4954903;28;20211;-40
2021/07/01 04:44:08;;;;;;;2.83;2.63;;;13.40;99.90;;;;;;4955500;28;20559;-41
2021/07/01 04:46:38;;;;;;;3.85;3.17;;;13.50;99.90;;;;;;4955869;28;20218;-41
2021/07/01 04:49:07;;;;;;;2.38;2.20;;;13.50;99.90;;;;;;4954865;28;20233;-41
2021/07/01 04:51:35;;;;;;;2.95;2.75;;;13.60;99.90;;;;;;4954923;28;20254;-44
2021/07/01 04:54:03;;;;;;;3.33;3.03;;;13.60;99.90;;;;;;4954856;28;20215;-42
2021/07/01 04:56:44;;;;;;;3.78;3.47;;;13.60;99.90;;;;;;4955226;28;20250;-42
2021/07/01 04:59:12;;;;;;;5.13;3.45;;;13.70;99.90;;;;;;4954500;28;20286;-45
2021/07/01 05:01:42;;;;;;;3.25;2.95;;;13.70;99.90;;;;;;4954316;28;20663;-45
2021/07/01 05:04:12;;;;;;;6.10;3.25;;;13.80;99.90;;;;;;4955089;28;20279;-46
2021/07/01 05:06:41;;;;;;;3.50;3.20;;;13.80;99.90;;;;;;4955295;28;20211;-43
2021/07/01 05:09:10;;;;;;;2.97;2.67;;;13.80;99.90;;;;;;4954661;28;20298;-43
2021/07/01 05:11:38;;;;;;;3.42;3.08;;;13.80;99.90;;;;;;4954215;28;20318;-42
2021/07/01 05:14:06;;;;;;;4.03;3.15;;;13.80;99.90;;;;;;4954059;28;20207;-42
2021/07/01 05:16:34;;;;;;;3.25;2.78;;;13.80;99.90;;;;;;4953812;28;20297;-43
2021/07/01 05:19:03;;;;;;;3.05;2.70;;;13.90;99.90;;;;;;4953757;28;20294;-45
2021/07/01 05:21:31;;;;;;;3.53;3.22;;;13.90;99.90;;;;;;4953860;28;20295;-43
2021/07/01 05:24:00;;;;;;;2.80;2.40;;;13.90;99.90;;;;;;4954716;28;20310;-45
2021/07/01 05:26:28;;;;;;;5.35;2.70;;;13.90;99.90;;;;;;4954724;28;20357;-43
2021/07/01 05:28:56;;;;;;;3.22;2.92;;;14.00;99.90;;;;;;4954070;28;20609;-43
2021/07/01 05:31:44;;;;;;;3.85;3.55;;;14.00;99.90;;;;;;4954162;28;20238;-43
2021/07/01 05:34:13;;;;;;;4.57;2.45;;;14.00;99.90;;;;;;4954005;28;20253;-43
2021/07/01 05:36:41;;;;;;;2.85;2.65;;;14.00;99.90;;;;;;4954222;28;20310;-46
2021/07/01 05:39:09;;;;;;;3.88;2.67;;;14.00;99.90;;;;;;4954085;28;20290;-46
2021/07/01 05:41:37;;;;;;;2.80;2.60;;;14.00;99.90;;;;;;4953853;28;20306;-44
2021/07/01 05:44:05;;;;;;;3.05;2.85;;;14.00;99.90;;;;;;4953732;28;20299;-42
2021/07/01 05:46:33;;;;;;;2.97;2.78;;;14.10;99.90;;;;;;4954036;28;20298;-42
2021/07/01 05:49:01;;;;;;;2.80;2.40;;;14.20;99.90;;;;;;4954093;28;20225;-42
2021/07/01 05:51:34;;;;;;;3.58;3.28;;;14.20;99.90;;;;;;4953625;28;20218;-41
2021/07/01 05:54:08;;;;;;;4.50;3.10;;;14.30;99.90;;;;;;4953789;28;20626;-43
2021/07/01 05:56:38;;;;;;;3.92;3.08;;;14.30;99.90;;;;;;4953493;28;20749;-42
2021/07/01 05:59:08;;;;;;;2.60;2.40;;;14.30;99.90;;;;;;4953700;28;20302;-41
2021/07/01 06:01:37;;;;;;;3.00;2.72;;;14.30;99.90;;;;;;4953816;28;20247;-41
2021/07/01 06:04:06;;;;;;;2.85;2.65;;;14.30;99.90;;;;;;4953560;28;20215;-41
2021/07/01 06:06:37;;;;;;;3.17;2.88;;;14.40;99.90;;;;;;4953543;28;20216;-43
2021/07/01 06:09:06;;;;;;;2.83;2.63;;;14.50;99.90;;;;;;4953564;28;20217;-45
2021/07/01 06:11:34;;;;;;;3.40;3.10;;;14.60;99.90;;;;;;4953534;28;20211;-42
2021/07/01 06:14:05;;;;;;;2.90;2.70;;;14.70;99.90;;;;;;4953758;28;20208;-42
2021/07/01 06:16:34;;;;;;;2.42;2.22;;;14.70;99.90;;;;;;4953621;28;20235;-42
2021/07/01 06:19:04;;;;;;;3.40;3.10;;;14.70;99.90;;;;;;4953509;28;20208;-42
2021/07/01 06:21:33;;;;;;;3.65;3.25;;;14.70;99.90;;;;;;4953491;28;20219;-41
2021/07/01 06:24:03;;;;;;;3.50;3.15;;;14.80;99.90;;;;;;4953543;28;20219;-41
2021/07/01 06:26:33;;;;;;;3.10;2.80;;;14.90;99.90;;;;;;4953092;28;20303;-42
2021/07/01 06:29:02;;;;;;;3.20;2.92;;;15.00;99.90;;;;;;4953355;28;20216;-41
2021/07/01 06:31:30;;;;;;;3.60;2.92;;;15.00;99.90;;;;;;4954934;28;20239;-43
2021/07/01 06:33:58;;;;;;;2.50;2.30;;;15.00;99.90;;;;;;4956766;28;20254;-42
2021/07/01 06:36:28;;;;;;;2.80;2.50;;;15.10;99.90;;;;;;4956755;29;20211;-43
2021/07/01 06:39:00;;;;;;;4.15;3.13;;;15.10;99.90;;;;;;4956847;28;20747;-45
2021/07/01 06:41:32;;;;;;;3.70;3.40;;;15.10;99.90;;;;;;4956613;28;20239;-41
2021/07/01 06:44:01;;;;;;;3.60;3.10;;;15.20;99.90;;;;;;4956529;28;20210;-44
2021/07/01 06:46:33;;;;;;;3.30;3.00;;;15.20;99.90;;;;;;4956646;28;20246;-46
2021/07/01 06:49:02;;;;;;;3.25;2.90;;;15.20;99.90;;;;;;4956366;28;20211;-43
2021/07/01 06:51:39;;;;;;;3.13;2.80;;;15.30;99.90;;;;;;4956488;28;20275;-44
2021/07/01 06:54:12;;;;;;;3.97;3.08;;;15.40;99.90;;;;;;4956345;28;20322;-43
2021/07/01 06:56:42;;;;;;;3.42;2.55;;;15.40;99.90;;;;;;4956397;28;20317;-42
2021/07/01 06:59:12;;;;;;;3.17;2.97;;;15.50;99.90;;;;;;4956438;28;20688;-41
2021/07/01 07:01:41;;;;;;;3.05;2.75;;;15.50;99.90;;;;;;4956323;28;20207;-41
2021/07/01 07:04:17;;;;;;;4.45;2.80;;;15.60;99.90;;;;;;4956232;28;20213;-41
2021/07/01 07:06:46;;;;;;;2.85;2.65;;;15.70;99.90;;;;;;4956205;28;20258;-43
2021/07/01 07:09:15;;;;;;;2.83;2.60;;;15.90;99.90;;;;;;4956065;28;20254;-43
2021/07/01 07:11:45;;;;;;;3.78;2.60;;;16.00;99.90;;;;;;4956135;28;20584;-44
2021/07/01 07:14:13;;;;;;;3.45;2.97;;;16.00;99.90;;;;;;4956244;28;20227;-43
2021/07/01 07:16:42;;;;;;;2.70;2.50;;;16.00;99.90;;;;;;4956127;28;20302;-45
2021/07/01 07:19:11;;;;;;;2.58;2.38;;;16.00;99.90;;;;;;4956180;28;20211;-42
2021/07/01 07:21:43;;;;;;;2.97;2.78;;;16.00;99.90;;;;;;4955941;28;20215;-42
2021/07/01 07:24:14;;;;;;;3.00;2.80;;;16.00;99.90;;;;;;4955762;28;20306;-42
2021/07/01 07:26:43;;;;;;;4.03;3.08;;;15.90;99.90;;;;;;4955944;28;20240;-43
2021/07/01 07:29:32;;;;;;;3.55;3.25;;;15.80;99.90;;;;;;4955575;28;20291;-42
2021/07/01 07:32:03;;;;;;;8.38;7.47;;;15.70;99.90;;;;;;4955553;28;20212;-44
2021/07/01 07:34:33;;;;;;;4.05;3.65;;;15.60;99.90;;;;;;4955307;28;20258;-45
2021/07/01 07:37:01;;;;;;;3.28;2.97;;;15.60;99.90;;;;;;4955909;28;20226;-44
2021/07/01 07:39:31;;;;;;;3.03;2.78;;;15.70;99.90;;;;;;4955855;28;20235;-45
2021/07/01 07:41:59;;;;;;;3.60;3.30;;;15.90;99.90;;;;;;4955294;28;20302;-45
2021/07/01 07:44:29;;;;;;;3.75;2.97;;;16.20;99.90;;;;;;4955716;28;20207;-45
2021/07/01 07:46:58;;;;;;;2.72;2.53;;;16.50;99.90;;;;;;4955606;28;20303;-46
2021/07/01 07:49:26;;;;;;;2.33;2.13;;;16.80;99.90;;;;;;4955587;28;20288;-47
2021/07/01 07:51:54;;;;;;;2.42;2.22;;;16.90;99.90;;;;;;4955274;28;20207;-46
2021/07/01 07:54:25;;;;;;;2.45;2.20;;;17.10;99.90;;;;;;4955212;28;20400;-45
2021/07/01 07:56:56;;;;;;;4.68;2.30;;;17.30;99.90;;;;;;4955371;28;20215;-44
2021/07/01 07:59:30;;;;;;;3.08;2.10;;;17.40;99.90;;;;;;4955080;28;20221;-46
2021/07/01 08:02:01;;;;;;;2.50;2.30;;;17.40;99.90;;;;;;4954978;28;20343;-46
2021/07/01 08:04:30;;;;;;;1.85;1.73;;;17.20;99.90;;;;;;4955019;28;20207;-46
2021/07/01 08:06:59;;;;;;;2.63;1.73;;;17.10;99.90;;;;;;4954440;28;20614;-47
2021/07/01 08:09:28;;;;;;;2.40;2.00;;;16.90;99.90;;;;;;4955096;28;20238;-48
2021/07/01 08:11:57;;;;;;;2.00;1.80;;;16.80;99.90;;;;;;4954696;28;20212;-48
2021/07/01 08:14:26;;;;;;;2.28;1.67;;;16.70;99.90;;;;;;4955061;28;20338;-44
2021/07/01 08:16:56;;;;;;;1.75;1.65;;;16.50;99.90;;;;;;4954910;28;20746;-42
2021/07/01 08:19:24;;;;;;;2.70;1.77;;;16.40;99.90;;;;;;4954516;28;20746;-46
2021/07/01 08:21:52;;;;;;;1.98;1.63;;;16.40;99.90;;;;;;4954435;28;20315;-42
2021/07/01 08:24:20;;;;;;;2.03;1.83;;;16.40;99.90;;;;;;4954468;28;20207;-44
2021/07/01 08:26:51;;;;;;;2.55;1.83;;;16.40;99.90;;;;;;4954283;28;20251;-44
2021/07/01 08:29:20;;;;;;;1.95;1.85;;;16.40;99.90;;;;;;4954645;28;20261;-43
2021/07/01 08:31:49;;;;;;;2.90;1.98;;;16.50;99.90;;;;;;4954594;28;20647;-42
2021/07/01 08:34:22;;;;;;;2.75;2.40;;;16.70;99.90;;;;;;4954152;28;20326;-41
2021/07/01 08:36:50;;;;;;;2.00;1.90;;;16.80;99.90;;;;;;4954078;28;20251;-42
2021/07/01 08:39:21;;;;;;;3.33;2.00;;;17.00;99.90;;;;;;4953945;28;20215;-46
2021/07/01 08:41:57;;;;;;;2.75;2.47;;;17.20;99.90;;;;;;4954073;28;20237;-41
2021/07/01 08:44:31;;;;;;;2.83;2.55;;;17.30;99.90;;;;;;4954023;28;20212;-43
2021/07/01 08:47:11;;;;;;;2.85;2.65;;;17.40;99.90;;;;;;4953751;28;20275;-41
2021/07/01 08:49:54;;;;;;;2.63;2.42;;;17.40;99.90;;;;;;4953553;28;20243;-42
2021/07/01 08:52:24;;;;;;;3.03;2.55;;;17.30;99.90;;;;;;4954023;28;20290;-42
2021/07/01 08:55:00;;;;;;;2.40;2.00;;;17.10;99.90;;;;;;4952980;28;20326;-44
2021/07/01 08:57:31;;;;;;;2.83;2.63;;;17.00;99.90;;;;;;4953672;28;20215;-42
2021/07/01 09:00:07;;;;;;;3.85;2.53;;;17.00;99.90;;;;;;4953787;28;20214;-42
2021/07/01 09:02:38;;;;;;;2.92;2.63;;;17.10;99.90;;;;;;4953687;28;20407;-45
2021/07/01 09:05:12;;;;;;;2.97;2.67;;;17.20;99.90;;;;;;4953567;28;20235;-41
2021/07/01 09:07:48;;;;;;;2.75;2.55;;;17.40;99.90;;;;;;4954192;28;20291;-45
2021/07/01 09:10:17;;;;;;;2.90;2.70;;;17.50;99.90;;;;;;4953190;28;20662;-45
2021/07/01 09:12:52;;;;;;;3.08;2.60;;;17.60;99.90;;;;;;4953696;28;20628;-47
2021/07/01 09:15:20;;;;;;;3.03;2.60;;;17.80;99.90;;;;;;4953370;28;20702;-46
2021/07/01 09:17:53;;;;;;;3.13;2.47;;;18.00;99.90;;;;;;4953785;28;20294;-44
2021/07/01 09:20:24;;;;;;;2.88;2.67;;;18.10;99.90;;;;;;4953760;28;20302;-47
2021/07/01 09:22:56;;;;;;;3.08;2.88;;;18.10;99.90;;;;;;4953598;28;20342;-46
2021/07/01 09:25:25;;;;;;;3.00;2.80;;;18.10;99.90;;;;;;4953979;28;20234;-44
2021/07/01 09:27:55;;;;;;;3.03;2.83;;;17.90;99.90;;;;;;4953835;28;20225;-45
2021/07/01 09:30:26;;;;;;;2.67;2.47;;;17.60;99.90;;;;;;4953902;28;20667;-45
2021/07/01 09:32:56;;;;;;;3.58;3.00;;;17.50;99.90;;;;;;4953429;28;20287;-45
2021/07/01 09:35:27;;;;;;;3.67;3.38;;;17.50;99.90;;;;;;4953649;28;20258;-44
2021/07/01 09:37:56;;;;;;;3.90;2.55;;;17.60;99.90;;;;;;4953656;28;20219;-45
2021/07/01 09:40:24;;;;;;;3.67;2.55;;;17.80;99.90;;;;;;4953734;28;20302;-46
2021/07/01 09:42:54;;;;;;;2.70;2.50;;;18.00;99.90;;;;;;4953693;28;20613;-44
2021/07/01 09:45:25;;;;;;;3.33;3.00;;;18.00;99.90;;;;;;4953148;28;20207;-47
2021/07/01 09:47:55;;;;;;;2.63;2.42;;;18.00;99.90;;;;;;4953255;28;20282;-44
2021/07/01 09:50:27;;;;;;;4.55;4.10;;;18.00;99.90;;;;;;4953342;28;20215;-42
2021/07/01 09:52:58;;;;;;;3.45;3.13;;;18.10;99.90;;;;;;4953233;28;20210;-41
2021/07/01 09:55:28;;;;;;;4.35;3.92;;;18.20;99.90;;;;;;4953173;28;20333;-43
2021/07/01 09:58:00;;;;;;;3.10;2.80;;;18.30;99.90;;;;;;4953542;29;20263;-42
2021/07/01 10:00:31;;;;;;;3.35;3.05;;;18.40;99.90;;;;;;4953529;28;20294;-44
2021/07/01 10:03:04;;;;;;;6.65;5.38;;;18.50;99.90;;;;;;4953457;28;20215;-42
2021/07/01 10:05:37;;;;;;;3.63;2.95;;;18.60;99.90;;;;;;4953450;28;20294;-42
2021/07/01 10:08:05;;;;;;;7.32;5.60;;;18.70;99.90;;;;;;4957198;28;20212;-42
2021/07/01 10:10:44;;;;;;;4.00;3.47;;;18.70;99.90;;;;;;4957078;28;20706;-43
2021/07/01 10:13:17;;;;;;;2.65;2.45;;;18.70;99.90;;;;;;4957111;28;20211;-44
2021/07/01 10:15:47;;;;;;;5.28;2.83;;;18.60;99.90;;;;;;4957042;28;20269;-43
2021/07/01 10:18:18;;;;;;;3.80;3.33;;;18.70;99.90;;;;;;4957017;28;20649;-41
2021/07/01 10:21:00;;;;;;;2.58;2.33;;;18.80;99.90;;;;;;4956765;28;20211;-39
2021/07/01 10:23:30;;;;;;;4.25;2.05;;;18.70;99.90;;;;;;4956546;28;20207;-39
2021/07/01 10:26:00;;;;;;;2.67;2.20;;;18.80;99.90;;;;;;4956569;28;20218;-40
2021/07/01 10:28:30;;;;;;;4.43;2.42;;;18.80;99.90;;;;;;4956482;28;20216;-40
2021/07/01 10:31:00;;;;;;;3.63;3.33;;;18.90;99.90;;;;;;4956474;28;20218;-42
2021/07/01 10:33:30;;;;;;;3.38;2.72;;;19.00;99.90;;;;;;4956438;28;20581;-40
2021/07/01 10:36:01;;;;;;;3.15;2.85;;;19.10;99.90;;;;;;4956183;28;20274;-42
2021/07/01 10:38:42;;;;;;;3.10;2.80;;;19.20;99.90;;;;;;4956464;28;20211;-44
2021/07/01 10:41:11;;;;;;;3.00;2.80;;;19.20;99.90;;;;;;4956388;28;20254;-45
2021/07/01 10:43:41;;;;;;;6.40;3.42;;;19.30;99.90;;;;;;4956478;28;20329;-43
2021/07/01 10:46:10;;;;;;;4.43;4.00;;;19.50;99.90;;;;;;4956225;28;20395;-43
2021/07/01 10:48:39;;;;;;;5.05;3.40;;;19.90;99.90;;;;;;4955941;28;20208;-43
2021/07/01 10:51:10;;;;;;;2.00;1.85;;;20.20;99.90;;;;;;4956103;28;20307;-42
2021/07/01 10:53:39;;;;;;;4.03;2.75;;;20.40;99.90;;;;;;4956103;28;20221;-42
2021/07/01 10:56:25;;;;;;;2.70;2.40;;;20.40;99.90;;;;;;4955687;28;20235;-42
2021/07/01 10:58:55;;;;;;;3.72;3.42;;;20.30;99.90;;;;;;4955506;28;20646;-41
2021/07/01 11:01:25;;;;;;;3.22;2.65;;;20.10;99.90;;;;;;4956343;28;20292;-40
2021/07/01 11:04:04;;;;;;;3.50;3.10;;;19.90;99.90;;;;;;4955872;28;20211;-44
2021/07/01 11:06:35;;;;;;;3.95;2.70;;;19.60;99.90;;;;;;4956079;28;20215;-40
2021/07/01 11:09:04;;;;;;;3.17;2.67;;;19.40;99.90;;;;;;4955675;28;20570;-40
2021/07/01 11:11:35;;;;;;;2.28;2.10;;;19.20;99.90;;;;;;4955840;28;20246;-41
2021/07/01 11:14:07;;;;;;;2.83;2.63;;;19.10;99.90;;;;;;4955796;28;20207;-40
2021/07/01 11:16:38;;;;;;;3.50;2.47;;;19.00;99.90;;;;;;4955254;28;20243;-40
2021/07/01 11:19:07;;;;;;;4.57;3.20;;;18.90;99.90;;;;;;4955466;28;20207;-40
2021/07/01 11:21:37;;;;;;;3.72;2.70;;;18.90;99.90;;;;;;4955364;28;20270;-41
2021/07/01 11:24:15;;;;;;;6.63;4.10;;;18.80;99.90;;;;;;4955767;28;20257;-40
2021/07/01 11:26:45;;;;;;;3.20;2.90;;;18.60;99.90;;;;;;4955797;28;20203;-40
2021/07/01 11:29:13;;;;;;;6.13;4.85;;;18.50;99.90;;;;;;4955648;28;20628;-39
2021/07/01 11:31:44;;;;;;;3.63;3.35;;;18.40;99.90;;;;;;4955518;28;20682;-40
2021/07/01 11:34:14;;;;;;;8.02;4.80;;;18.20;99.90;;;;;;4955253;28;20246;-41
2021/07/01 11:36:49;;;;;;;6.30;5.78;;;18.10;99.90;;;;;;4955367;28;20514;-41
2021/07/01 11:39:19;;;;;;;7.15;3.95;;;17.80;99.90;;;;;;4955432;28;20302;-41
2021/07/01 11:41:47;;;;;;;4.90;4.47;;;17.40;99.90;;;;;;4955402;28;20221;-42
2021/07/01 11:44:15;;;;;;;4.15;3.80;;;17.20;99.90;;;;;;4955532;28;20278;-41
2021/07/01 11:46:45;;;;;;;5.47;4.97;;;17.00;99.90;;;;;;4955521;28;20208;-40
2021/07/01 11:49:13;;;;;;;5.03;4.50;;;16.80;99.90;;;;;;4955434;28;20211;-42
2021/07/01 11:51:44;;;;;;;4.60;4.20;;;16.70;99.90;;;;;;4955117;28;20215;-41
2021/07/01 11:54:12;;;;;;;5.80;4.85;;;16.60;99.90;;;;;;4955241;28;20294;-44
2021/07/01 11:56:55;;;;;;;5.55;4.82;;;16.70;99.90;;;;;;4954990;28;20814;-41
2021/07/01 11:59:25;;;;;;;5.20;4.75;;;17.00;99.90;;;;;;4954725;28;20306;-42
2021/07/01 12:01:54;;;;;;;4.88;3.88;;;17.40;99.90;;;;;;4954808;28;20243;-43
2021/07/01 12:04:27;;;;;;;5.65;4.10;;;17.90;99.90;;;;;;4954717;28;20211;-42
2021/07/01 12:07:06;;;;;;;5.05;4.30;;;18.30;99.90;;;;;;4954743;28;20234;-42
2021/07/01 12:09:37;;;;;;;4.57;4.18;;;18.70;99.90;;;;;;4954606;28;20655;-41
2021/07/01 12:12:16;;;;;;;4.85;3.83;;;18.90;99.90;;;;;;4954575;28;20738;-41
2021/07/01 12:14:46;;;;;;;5.18;3.75;;;19.20;99.90;;;;;;4954515;28;20483;-41
2021/07/01 12:17:45;;;;;;;4.50;4.10;;;19.40;99.90;;;;;;4954371;28;20306;-41
2021/07/01 12:20:25;;;;;;;6.13;4.53;;;19.60;99.90;;;;;;4954332;28;20233;-41
2021/07/01 12:22:57;;;;;;;4.47;4.03;;;19.70;99.90;;;;;;4954583;28;20322;-42
2021/07/01 12:25:42;;;;;;;4.20;3.38;;;19.60;99.90;;;;;;4954480;28;20222;-41
2021/07/01 12:28:13;;;;;;;6.00;3.85;;;19.40;99.90;;;;;;4953741;28;20281;-40
2021/07/01 12:31:00;;;;;;;4.43;4.03;;;19.30;99.90;;;;;;4954113;28;20249;-41
2021/07/01 12:33:42;;;;;;;4.40;4.00;;;19.20;99.90;;;;;;4954258;28;20243;-41
2021/07/01 12:36:14;;;;;;;3.80;3.50;;;19.00;99.90;;;;;;4954406;28;20318;-41
2021/07/01 12:39:13;;;;;;;4.85;3.92;;;18.90;99.90;;;;;;4954266;28;20211;-43
2021/07/01 12:41:43;;;;;;;4.65;4.25;;;18.80;99.90;;;;;;4954173;28;20586;-41
2021/07/01 12:44:16;;;;;;;3.80;3.40;;;18.80;99.90;;;;;;4953816;28;20285;-42
2021/07/01 12:47:05;;;;;;;5.28;3.65;;;18.90;99.90;;;;;;4954030;28;20241;-42
2021/07/01 12:50:00;;;;;;;4.75;4.00;;;18.90;99.90;;;;;;4953852;28;20668;-41
2021/07/01 12:52:52;;;;;;;3.95;3.65;;;18.90;99.90;;;;;;4953649;28;20740;-43
2021/07/01 12:55:29;;;;;;;4.10;3.72;;;18.90;99.90;;;;;;4953754;28;20302;-41
2021/07/01 12:57:57;;;;;;;3.38;3.08;;;18.90;99.90;;;;;;4953990;28;20250;-41
2021/07/01 13:00:25;;;;;;;5.80;4.20;;;19.00;99.90;;;;;;4954009;28;20274;-41
2021/07/01 13:03:01;;;;;;;3.55;3.25;;;19.00;99.90;;;;;;4953824;28;20221;-41
2021/07/01 13:05:35;;;;;;;4.45;3.70;;;19.10;99.90;;;;;;4954304;28;20751;-42